Time;durP1;ratioP1;P1;durP2;ratioP2;P2;SDS_P1;SDS_P2;PMS_P1;PMS_P2;Temp;Humidity;BMP_temperature;BMP_pressure;BME280_temperature;BME280_humidity;BME280_pressure;Samples;Min_cycle;Max_cycle;Signal;HPM_P1;HPM_P2
2023/02/22 00:00:42;;;;;;;9.57;7.10;;;;;;;;;;5055887;28;20205;-67
2023/02/22 00:03:14;;;;;;;13.48;7.80;;;;;;;;;;5054820;28;20269;-66
2023/02/22 00:05:44;;;;;;;11.50;7.43;;;;;;;;;;5055126;28;20189;-66
2023/02/22 00:08:12;;;;;;;9.40;6.55;;;;;;;;;;5056174;28;20211;-66
2023/02/22 00:10:40;;;;;;;9.80;7.32;;;;;;;;;;5056246;28;20197;-66
2023/02/22 00:13:10;;;;;;;10.27;7.47;;;;;;;;;;5056140;28;20212;-66
2023/02/22 00:15:40;;;;;;;9.45;7.30;;;;;;;;;;5055902;28;20201;-66
2023/02/22 00:18:10;;;;;;;7.47;6.43;;;;;;;;;;5054921;28;20199;-66
2023/02/22 00:20:40;;;;;;;6.97;5.85;;;;;;;;;;5054973;28;20180;-66
2023/02/22 00:23:10;;;;;;;9.00;7.00;;;;;;;;;;5054588;28;20217;-66
2023/02/22 00:25:39;;;;;;;8.05;6.93;;;;;;;;;;5054504;28;20193;-66
2023/02/22 00:28:07;;;;;;;10.60;6.65;;;;;;;;;;5054828;28;20297;-66
2023/02/22 00:30:36;;;;;;;9.45;6.80;;;;;;;;;;5054963;28;20530;-67
2023/02/22 00:33:05;;;;;;;7.78;6.78;;;;;;;;;;5051296;28;20235;-67
2023/02/22 00:35:35;;;;;;;8.98;7.32;;;;;;;;;;5060161;28;20193;-66
2023/02/22 00:38:04;;;;;;;8.80;6.63;;;;;;;;;;5055205;28;20518;-67
2023/02/22 00:40:33;;;;;;;6.03;5.20;;;;;;;;;;5053989;28;20204;-66
2023/02/22 00:43:02;;;;;;;7.85;5.95;;;;;;;;;;5053024;28;20208;-66
2023/02/22 00:45:31;;;;;;;9.60;6.95;;;;;;;;;;5054181;28;20201;-66
2023/02/22 00:48:00;;;;;;;8.07;6.30;;;;;;;;;;5054387;28;20205;-66
2023/02/22 00:50:29;;;;;;;12.35;7.38;;;;;;;;;;5053603;28;20204;-66
2023/02/22 00:52:58;;;;;;;8.75;6.95;;;;;;;;;;5053244;28;20231;-66
2023/02/22 00:55:29;;;;;;;14.25;7.63;;;;;;;;;;5055069;28;20230;-66
2023/02/22 00:57:57;;;;;;;7.88;6.15;;;;;;;;;;5054142;28;20189;-65
2023/02/22 01:00:27;;;;;;;9.88;7.70;;;;;;;;;;5054631;28;20585;-65
2023/02/22 01:02:56;;;;;;;9.27;7.00;;;;;;;;;;5053835;28;20200;-65
2023/02/22 01:05:25;;;;;;;7.85;6.18;;;;;;;;;;5053391;28;20230;-65
2023/02/22 01:07:55;;;;;;;11.52;6.80;;;;;;;;;;5054812;28;20193;-65
2023/02/22 01:10:24;;;;;;;6.80;6.10;;;;;;;;;;5053675;28;20204;-66
2023/02/22 01:12:55;;;;;;;9.48;6.75;;;;;;;;;;5053767;28;20200;-66
2023/02/22 01:15:26;;;;;;;7.70;6.90;;;;;;;;;;5053494;28;20193;-65
2023/02/22 01:17:54;;;;;;;10.60;5.95;;;;;;;;;;5054172;28;20189;-66
2023/02/22 01:20:24;;;;;;;7.53;6.28;;;;;;;;;;5053333;28;20223;-66
2023/02/22 01:22:54;;;;;;;10.80;5.80;;;;;;;;;;5053943;28;20238;-67
2023/02/22 01:25:23;;;;;;;8.48;5.97;;;;;;;;;;5053829;28;20655;-66
2023/02/22 01:27:52;;;;;;;10.68;6.45;;;;;;;;;;5053451;28;20230;-66
2023/02/22 01:30:23;;;;;;;8.10;6.72;;;;;;;;;;5053763;28;20185;-66
2023/02/22 01:32:52;;;;;;;7.50;5.90;;;;;;;;;;5053624;28;20192;-66
2023/02/22 01:35:21;;;;;;;12.88;6.93;;;;;;;;;;5053586;28;20605;-66
2023/02/22 01:37:50;;;;;;;6.47;5.47;;;;;;;;;;5052323;28;20219;-65
2023/02/22 01:40:20;;;;;;;6.22;5.32;;;;;;;;;;5051825;28;20205;-65
2023/02/22 01:42:49;;;;;;;6.65;5.78;;;;;;;;;;5052415;28;20211;-66
2023/02/22 01:45:41;;;;;;;8.73;6.40;;;;;;;;;;5053587;28;20195;-66
2023/02/22 01:48:12;;;;;;;7.03;6.13;;;;;;;;;;5033445;28;20197;-67
2023/02/22 01:50:42;;;;;;;7.93;6.18;;;;;;;;;;5033538;28;20208;-65
2023/02/22 01:53:12;;;;;;;6.82;5.75;;;;;;;;;;5033601;28;20211;-65
2023/02/22 01:55:40;;;;;;;7.68;5.57;;;;;;;;;;5033135;28;20590;-66
2023/02/22 01:58:09;;;;;;;7.32;5.85;;;;;;;;;;5035781;28;20520;-66
2023/02/22 02:00:38;;;;;;;8.95;5.47;;;;;;;;;;5053810;28;20679;-65
2023/02/22 02:03:10;;;;;;;7.57;5.97;;;;;;;;;;5052714;28;20205;-65
2023/02/22 02:05:38;;;;;;;8.43;6.30;;;;;;;;;;5051911;28;20204;-66
2023/02/22 02:08:20;;;;;;;7.30;5.72;;;;;;;;;;5032580;28;20209;-66
2023/02/22 02:10:49;;;;;;;7.60;5.60;;;;;;;;;;5042061;28;20787;-66
2023/02/22 02:13:17;;;;;;;7.55;5.70;;;;;;;;;;5052442;28;20210;-67
2023/02/22 02:15:51;;;;;;;8.88;7.53;;;;;;;;;;5053235;28;20688;-65
2023/02/22 02:18:19;;;;;;;5.90;5.40;;;;;;;;;;5052622;28;20185;-65
2023/02/22 02:20:53;;;;;;;5.70;5.20;;;;;;;;;;5052923;28;20208;-66
2023/02/22 02:23:36;;;;;;;6.85;5.68;;;;;;;;;;5034824;28;20221;-66
2023/02/22 02:26:14;;;;;;;6.38;5.45;;;;;;;;;;5052807;28;20192;-65
2023/02/22 02:29:15;;;;;;;6.70;6.07;;;;;;;;;;5051984;28;20240;-66
2023/02/22 02:32:10;;;;;;;7.15;5.70;;;;;;;;;;5052278;28;20204;-66
2023/02/22 02:34:44;;;;;;;5.78;5.22;;;;;;;;;;5047751;28;20253;-66
2023/02/22 02:37:18;;;;;;;13.77;6.22;;;;;;;;;;5052180;28;20231;-66
2023/02/22 02:39:49;;;;;;;6.65;5.97;;;;;;;;;;5050960;28;20199;-65
2023/02/22 02:42:22;;;;;;;6.45;5.63;;;;;;;;;;5051309;28;20200;-65
2023/02/22 02:44:53;;;;;;;9.15;7.03;;;;;;;;;;5051254;28;20207;-65
2023/02/22 02:47:23;;;;;;;11.25;7.88;;;;;;;;;;5041990;28;20594;-66
2023/02/22 02:49:56;;;;;;;9.75;7.60;;;;;;;;;;5033302;28;20201;-66
2023/02/22 02:52:25;;;;;;;10.85;7.00;;;;;;;;;;5032495;28;20200;-66
2023/02/22 02:54:54;;;;;;;7.45;5.78;;;;;;;;;;5032023;28;20221;-66
2023/02/22 02:57:23;;;;;;;7.20;5.57;;;;;;;;;;5047791;28;20581;-66
2023/02/22 02:59:51;;;;;;;8.80;5.68;;;;;;;;;;5063033;28;20196;-66
2023/02/22 03:02:33;;;;;;;7.55;5.95;;;;;;;;;;5051561;28;20572;-65
2023/02/22 03:05:19;;;;;;;11.55;7.63;;;;;;;;;;5051788;28;20239;-65
2023/02/22 03:07:53;;;;;;;8.70;6.30;;;;;;;;;;5052914;28;20195;-66
2023/02/22 03:10:29;;;;;;;10.98;7.15;;;;;;;;;;5052111;28;20736;-65
2023/02/22 03:13:01;;;;;;;11.93;7.82;;;;;;;;;;5052607;28;20558;-67
2023/02/22 03:15:35;;;;;;;13.23;9.10;;;;;;;;;;5052290;28;20209;-66
2023/02/22 03:18:05;;;;;;;13.35;9.07;;;;;;;;;;5051162;28;20189;-66
2023/02/22 03:20:41;;;;;;;14.50;8.32;;;;;;;;;;5034060;28;20648;-66
2023/02/22 03:23:15;;;;;;;6.85;6.15;;;;;;;;;;5050132;28;20226;-65
2023/02/22 03:25:46;;;;;;;9.02;7.10;;;;;;;;;;5052293;28;20192;-65
2023/02/22 03:28:17;;;;;;;7.75;6.25;;;;;;;;;;5053620;28;20244;-65
2023/02/22 03:30:49;;;;;;;8.13;7.30;;;;;;;;;;5054430;28;20185;-65
2023/02/22 03:33:20;;;;;;;10.75;7.00;;;;;;;;;;5056519;28;20185;-66
2023/02/22 03:35:55;;;;;;;8.73;6.28;;;;;;;;;;5055260;28;20238;-66
2023/02/22 03:38:26;;;;;;;8.52;6.32;;;;;;;;;;5054944;28;20211;-66
2023/02/22 03:40:58;;;;;;;12.18;7.40;;;;;;;;;;5054079;28;20195;-66
2023/02/22 03:43:29;;;;;;;9.95;7.22;;;;;;;;;;5053962;28;20184;-66
2023/02/22 03:46:02;;;;;;;7.93;6.15;;;;;;;;;;5053789;28;20214;-66
2023/02/22 03:48:34;;;;;;;14.20;9.32;;;;;;;;;;5054594;28;20192;-65
2023/02/22 03:51:03;;;;;;;6.65;5.88;;;;;;;;;;5054766;28;20197;-66
2023/02/22 03:53:36;;;;;;;7.13;6.43;;;;;;;;;;5054074;28;20203;-65
2023/02/22 03:56:09;;;;;;;7.68;5.90;;;;;;;;;;5053051;28;20215;-65
2023/02/22 03:58:38;;;;;;;6.30;5.57;;;;;;;;;;5067581;28;20203;-65
2023/02/22 04:01:06;;;;;;;8.80;5.55;;;;;;;;;;5046359;28;20232;-66
2023/02/22 04:03:35;;;;;;;7.82;5.40;;;;;;;;;;5046975;28;20197;-66
2023/02/22 04:06:03;;;;;;;14.05;6.78;;;;;;;;;;5053173;28;20201;-66
2023/02/22 04:08:31;;;;;;;7.53;5.90;;;;;;;;;;5054613;28;20663;-66
2023/02/22 04:11:02;;;;;;;7.28;6.05;;;;;;;;;;5053896;28;20208;-66
2023/02/22 04:13:31;;;;;;;7.30;6.13;;;;;;;;;;5054670;28;20185;-66
2023/02/22 04:16:00;;;;;;;6.50;5.82;;;;;;;;;;5053816;28;20229;-66
2023/02/22 04:18:28;;;;;;;6.30;5.25;;;;;;;;;;5054705;28;20218;-66
2023/02/22 04:20:57;;;;;;;6.72;6.05;;;;;;;;;;5053626;28;20628;-66
2023/02/22 04:23:36;;;;;;;7.93;5.57;;;;;;;;;;5054533;28;20220;-66
2023/02/22 04:26:06;;;;;;;6.80;6.03;;;;;;;;;;5055125;28;20214;-66
2023/02/22 04:28:34;;;;;;;9.30;6.00;;;;;;;;;;5054816;28;20237;-66
2023/02/22 04:31:10;;;;;;;5.85;5.18;;;;;;;;;;5053907;28;20194;-66
2023/02/22 04:33:39;;;;;;;6.82;4.93;;;;;;;;;;5053695;28;20475;-66
2023/02/22 04:36:08;;;;;;;8.07;6.40;;;;;;;;;;5053619;28;20230;-66
2023/02/22 04:38:37;;;;;;;9.98;6.50;;;;;;;;;;5053125;28;20214;-66
2023/02/22 04:41:06;;;;;;;5.75;5.25;;;;;;;;;;5053267;28;20234;-66
2023/02/22 04:43:34;;;;;;;13.98;6.60;;;;;;;;;;5054726;28;20209;-66
2023/02/22 04:46:10;;;;;;;8.85;5.80;;;;;;;;;;5053968;28;20184;-66
2023/02/22 04:48:38;;;;;;;8.00;5.85;;;;;;;;;;5052227;28;20211;-66
2023/02/22 04:51:07;;;;;;;7.68;6.13;;;;;;;;;;5054724;28;20204;-66
2023/02/22 04:53:36;;;;;;;5.50;5.00;;;;;;;;;;5053128;28;20234;-66
2023/02/22 04:56:04;;;;;;;6.60;5.55;;;;;;;;;;5053424;28;20216;-66
2023/02/22 04:58:33;;;;;;;8.32;6.95;;;;;;;;;;5052067;28;20200;-65
2023/02/22 05:01:02;;;;;;;9.73;6.68;;;;;;;;;;5051529;28;20263;-67
2023/02/22 05:03:30;;;;;;;14.57;7.60;;;;;;;;;;5052253;28;20205;-65
2023/02/22 05:05:58;;;;;;;8.32;6.65;;;;;;;;;;5053651;28;20648;-65
2023/02/22 05:08:26;;;;;;;15.02;5.93;;;;;;;;;;5054438;28;20235;-69
2023/02/22 05:10:55;;;;;;;7.30;5.32;;;;;;;;;;5054431;28;20582;-66
2023/02/22 05:13:23;;;;;;;16.33;5.20;;;;;;;;;;5054119;28;20205;-66
2023/02/22 05:15:53;;;;;;;8.48;5.40;;;;;;;;;;5054190;28;20224;-66
2023/02/22 05:18:21;;;;;;;7.88;5.55;;;;;;;;;;5054208;28;20200;-66
2023/02/22 05:20:49;;;;;;;6.22;5.63;;;;;;;;;;5053896;28;20232;-66
2023/02/22 05:23:17;;;;;;;6.10;5.50;;;;;;;;;;5053980;28;20220;-66
2023/02/22 05:25:45;;;;;;;5.95;5.40;;;;;;;;;;5053256;28;20686;-65
2023/02/22 05:28:14;;;;;;;7.35;5.95;;;;;;;;;;5053807;28;20229;-67
2023/02/22 05:30:43;;;;;;;7.95;6.07;;;;;;;;;;5053356;28;20185;-66
2023/02/22 05:33:12;;;;;;;8.25;5.22;;;;;;;;;;5053520;28;20562;-66
2023/02/22 05:35:41;;;;;;;7.15;5.50;;;;;;;;;;5053370;28;20224;-66
2023/02/22 05:38:10;;;;;;;8.10;5.75;;;;;;;;;;5053753;28;20208;-66
2023/02/22 05:40:38;;;;;;;11.35;6.20;;;;;;;;;;5053560;28;20212;-66
2023/02/22 05:43:06;;;;;;;7.90;6.50;;;;;;;;;;5053436;28;20204;-65
2023/02/22 05:45:35;;;;;;;7.18;5.47;;;;;;;;;;5052061;28;20199;-65
2023/02/22 05:48:03;;;;;;;7.03;6.10;;;;;;;;;;5053544;28;20573;-67
2023/02/22 05:50:33;;;;;;;6.95;5.97;;;;;;;;;;5053101;28;20200;-67
2023/02/22 05:53:01;;;;;;;6.60;5.90;;;;;;;;;;5054054;28;20205;-66
2023/02/22 05:55:30;;;;;;;11.20;6.35;;;;;;;;;;5052393;28;20728;-65
2023/02/22 05:57:58;;;;;;;9.73;6.80;;;;;;;;;;5050077;28;20212;-66
2023/02/22 06:00:27;;;;;;;7.18;5.97;;;;;;;;;;5053002;28;20197;-66
2023/02/22 06:02:56;;;;;;;6.45;5.50;;;;;;;;;;5051996;28;20671;-66
2023/02/22 06:05:24;;;;;;;10.85;6.00;;;;;;;;;;5051403;28;20219;-66
2023/02/22 06:07:54;;;;;;;11.25;5.93;;;;;;;;;;5053372;28;20604;-67
2023/02/22 06:10:22;;;;;;;7.43;5.65;;;;;;;;;;5051297;28;20201;-66
2023/02/22 06:12:51;;;;;;;9.70;6.82;;;;;;;;;;5050843;28;20219;-67
2023/02/22 06:15:20;;;;;;;6.80;5.32;;;;;;;;;;5053284;28;20204;-67
2023/02/22 06:17:48;;;;;;;11.60;6.43;;;;;;;;;;5050883;28;20201;-67
2023/02/22 06:20:17;;;;;;;10.20;6.82;;;;;;;;;;5049088;28;20678;-67
2023/02/22 06:22:47;;;;;;;7.90;6.07;;;;;;;;;;5050902;28;20227;-66
2023/02/22 06:25:17;;;;;;;9.30;7.07;;;;;;;;;;5048908;28;20195;-67
2023/02/22 06:27:46;;;;;;;7.70;6.10;;;;;;;;;;5050064;28;20196;-67
2023/02/22 06:30:14;;;;;;;11.73;7.43;;;;;;;;;;5051352;28;20184;-67
2023/02/22 06:32:43;;;;;;;18.67;9.77;;;;;;;;;;5048999;28;20203;-66
2023/02/22 06:35:11;;;;;;;12.20;7.75;;;;;;;;;;5064966;28;20213;-66
2023/02/22 06:37:40;;;;;;;24.10;12.38;;;;;;;;;;5051802;28;20220;-66
2023/02/22 06:40:10;;;;;;;15.27;9.68;;;;;;;;;;5052631;28;20200;-66
2023/02/22 06:42:39;;;;;;;9.82;6.90;;;;;;;;;;5051004;28;20205;-65
2023/02/22 06:45:08;;;;;;;12.18;8.27;;;;;;;;;;5050445;28;20744;-66
2023/02/22 06:47:39;;;;;;;8.82;7.55;;;;;;;;;;5050865;28;20547;-66
2023/02/22 06:50:08;;;;;;;9.48;6.45;;;;;;;;;;5050323;28;20570;-66
2023/02/22 06:52:36;;;;;;;9.30;7.05;;;;;;;;;;5052653;28;20208;-65
2023/02/22 06:55:04;;;;;;;10.50;7.40;;;;;;;;;;5052363;28;20212;-66
2023/02/22 06:57:32;;;;;;;7.93;7.07;;;;;;;;;;5052107;28;20224;-65
2023/02/22 07:00:02;;;;;;;7.95;6.55;;;;;;;;;;5050833;28;20213;-67
2023/02/22 07:02:30;;;;;;;9.45;6.70;;;;;;;;;;5053402;28;20667;-66
2023/02/22 07:04:58;;;;;;;7.45;6.13;;;;;;;;;;5055897;28;20213;-66
2023/02/22 07:07:26;;;;;;;7.53;6.82;;;;;;;;;;5055219;28;20197;-66
2023/02/22 07:09:54;;;;;;;8.13;6.10;;;;;;;;;;5056481;28;20258;-66
2023/02/22 07:12:23;;;;;;;12.65;6.50;;;;;;;;;;5056465;28;20208;-66
2023/02/22 07:14:51;;;;;;;7.35;6.35;;;;;;;;;;5055211;28;20216;-66
2023/02/22 07:17:20;;;;;;;10.20;6.43;;;;;;;;;;5047972;28;20548;-66
2023/02/22 07:19:48;;;;;;;8.80;7.25;;;;;;;;;;5055235;28;20644;-67
2023/02/22 07:22:17;;;;;;;8.52;6.07;;;;;;;;;;5054972;28;20196;-67
2023/02/22 07:24:46;;;;;;;8.85;6.65;;;;;;;;;;5055026;28;20209;-67
2023/02/22 07:27:14;;;;;;;7.95;6.10;;;;;;;;;;5055439;28;20530;-66
2023/02/22 07:29:43;;;;;;;9.55;7.10;;;;;;;;;;5055692;28;20225;-66
2023/02/22 07:32:11;;;;;;;11.27;5.70;;;;;;;;;;5055115;28;20208;-67
2023/02/22 07:34:41;;;;;;;8.65;7.07;;;;;;;;;;5055195;28;20249;-66
2023/02/22 07:37:10;;;;;;;9.05;7.15;;;;;;;;;;5056252;28;20211;-66
2023/02/22 07:39:40;;;;;;;8.60;5.47;;;;;;;;;;5055086;28;20197;-66
2023/02/22 07:42:09;;;;;;;9.82;7.38;;;;;;;;;;5056290;28;20193;-67
2023/02/22 07:44:38;;;;;;;11.10;7.57;;;;;;;;;;5046126;28;20545;-67
2023/02/22 07:47:07;;;;;;;9.05;6.93;;;;;;;;;;5054506;28;20258;-67
2023/02/22 07:49:35;;;;;;;10.43;7.25;;;;;;;;;;5053680;28;20196;-66
2023/02/22 07:52:06;;;;;;;11.00;8.15;;;;;;;;;;5057282;28;20539;-66
2023/02/22 07:54:34;;;;;;;15.88;10.07;;;;;;;;;;5056660;28;20200;-66
2023/02/22 07:57:03;;;;;;;16.73;10.25;;;;;;;;;;5056790;28;20221;-67
2023/02/22 07:59:32;;;;;;;21.45;12.10;;;;;;;;;;5056151;28;20201;-66
2023/02/22 08:02:00;;;;;;;18.65;9.80;;;;;;;;;;5054960;28;20668;-67
2023/02/22 08:04:29;;;;;;;14.18;10.60;;;;;;;;;;5054860;28;20246;-67
2023/02/22 08:06:57;;;;;;;12.98;9.45;;;;;;;;;;5054958;28;20203;-67
2023/02/22 08:09:26;;;;;;;11.20;9.15;;;;;;;;;;5056839;28;20204;-68
2023/02/22 08:11:55;;;;;;;15.15;8.30;;;;;;;;;;5055054;28;20242;-68
2023/02/22 08:14:23;;;;;;;16.05;9.50;;;;;;;;;;5055619;28;20560;-67
2023/02/22 08:16:51;;;;;;;12.27;10.02;;;;;;;;;;5055436;28;20555;-67
2023/02/22 08:19:19;;;;;;;18.80;9.82;;;;;;;;;;5055542;28;20699;-68
2023/02/22 08:21:47;;;;;;;12.25;9.75;;;;;;;;;;5054720;28;20203;-68
2023/02/22 08:24:15;;;;;;;17.23;10.27;;;;;;;;;;5055425;28;20220;-67
2023/02/22 08:26:46;;;;;;;14.13;10.10;;;;;;;;;;5054481;28;20674;-68
2023/02/22 08:29:15;;;;;;;26.50;11.48;;;;;;;;;;5055235;28;20231;-67
2023/02/22 08:31:43;;;;;;;16.85;11.98;;;;;;;;;;5054011;28;20196;-67
2023/02/22 08:34:11;;;;;;;15.73;11.65;;;;;;;;;;5052535;28;20234;-67
2023/02/22 08:36:42;;;;;;;17.23;10.75;;;;;;;;;;5053725;28;20598;-67
2023/02/22 08:39:10;;;;;;;14.52;10.80;;;;;;;;;;5054621;28;20193;-67
2023/02/22 08:41:38;;;;;;;14.48;11.60;;;;;;;;;;5053966;28;20200;-67
2023/02/22 08:44:08;;;;;;;14.63;11.18;;;;;;;;;;5054787;28;20201;-67
2023/02/22 08:46:36;;;;;;;12.55;11.25;;;;;;;;;;5053802;28;20307;-67
2023/02/22 08:49:07;;;;;;;16.30;11.40;;;;;;;;;;5053259;28;20212;-67
2023/02/22 08:51:36;;;;;;;14.10;10.70;;;;;;;;;;5047960;28;20215;-67
2023/02/22 08:54:05;;;;;;;16.45;10.85;;;;;;;;;;5054011;28;20684;-67
2023/02/22 08:56:33;;;;;;;15.93;11.07;;;;;;;;;;5053543;28;20205;-67
2023/02/22 08:59:01;;;;;;;14.50;10.35;;;;;;;;;;5054418;28;20431;-67
2023/02/22 09:01:33;;;;;;;11.85;10.18;;;;;;;;;;5052976;28;20204;-67
2023/02/22 09:04:01;;;;;;;12.70;10.88;;;;;;;;;;5051462;28;20197;-67
2023/02/22 09:06:30;;;;;;;13.05;9.93;;;;;;;;;;5051846;28;20678;-67
2023/02/22 09:08:58;;;;;;;11.95;9.98;;;;;;;;;;5053185;28;20207;-67
2023/02/22 09:11:26;;;;;;;19.70;11.02;;;;;;;;;;5052607;28;20199;-67
2023/02/22 09:13:54;;;;;;;12.77;10.50;;;;;;;;;;5053558;28;20201;-66
2023/02/22 09:16:22;;;;;;;20.35;10.15;;;;;;;;;;5052734;28;20207;-67
2023/02/22 09:18:52;;;;;;;15.10;9.85;;;;;;;;;;5052981;28;20220;-67
2023/02/22 09:21:20;;;;;;;16.67;10.35;;;;;;;;;;5053080;28;20215;-66
2023/02/22 09:23:48;;;;;;;13.70;10.88;;;;;;;;;;5051741;28;20228;-66
2023/02/22 09:26:16;;;;;;;17.08;11.60;;;;;;;;;;5053558;28;20204;-66
2023/02/22 09:28:45;;;;;;;13.10;11.18;;;;;;;;;;5046971;28;20289;-67
2023/02/22 09:31:13;;;;;;;15.02;11.05;;;;;;;;;;5051511;28;20211;-67
2023/02/22 09:33:41;;;;;;;16.20;10.10;;;;;;;;;;5052048;28;20644;-67
2023/02/22 09:36:11;;;;;;;12.85;10.25;;;;;;;;;;5052274;28;20208;-67
2023/02/22 09:38:39;;;;;;;13.40;9.98;;;;;;;;;;5052588;28;20679;-66
2023/02/22 09:41:12;;;;;;;14.95;10.77;;;;;;;;;;5052731;28;20808;-67
2023/02/22 09:43:42;;;;;;;18.58;10.90;;;;;;;;;;5052794;28;20189;-67
2023/02/22 09:46:17;;;;;;;18.40;10.10;;;;;;;;;;5045563;28;20209;-67
2023/02/22 09:48:52;;;;;;;13.95;11.32;;;;;;;;;;5052228;28;20635;-66
2023/02/22 09:51:26;;;;;;;15.38;11.23;;;;;;;;;;5052414;28;20189;-66
2023/02/22 09:53:56;;;;;;;13.85;10.27;;;;;;;;;;5052197;28;20191;-66
2023/02/22 09:56:25;;;;;;;14.18;10.30;;;;;;;;;;5052321;28;20197;-67
2023/02/22 09:58:55;;;;;;;13.88;10.52;;;;;;;;;;5052341;28;20570;-67
2023/02/22 10:01:26;;;;;;;14.10;10.48;;;;;;;;;;5051480;28;20203;-67
2023/02/22 10:04:00;;;;;;;18.33;9.88;;;;;;;;;;5051972;28;20192;-67
2023/02/22 10:06:32;;;;;;;14.50;10.48;;;;;;;;;;5052079;28;20193;-67
2023/02/22 10:09:06;;;;;;;12.90;10.88;;;;;;;;;;5052994;28;20197;-67
2023/02/22 10:11:41;;;;;;;10.63;9.52;;;;;;;;;;5052536;28;20188;-67
2023/02/22 10:14:19;;;;;;;13.70;11.05;;;;;;;;;;5042227;28;20200;-67
2023/02/22 10:16:49;;;;;;;11.52;10.43;;;;;;;;;;5052868;28;20197;-67
2023/02/22 10:19:22;;;;;;;14.88;10.48;;;;;;;;;;5052067;28;20687;-68
2023/02/22 10:21:57;;;;;;;11.23;9.70;;;;;;;;;;5053051;28;20675;-68
2023/02/22 10:24:31;;;;;;;12.93;11.10;;;;;;;;;;5051761;28;20220;-68
2023/02/22 10:26:59;;;;;;;13.02;9.40;;;;;;;;;;5045673;28;23656;-68
2023/02/22 10:29:31;;;;;;;10.82;9.40;;;;;;;;;;5050326;28;20232;-68
2023/02/22 10:32:00;;;;;;;12.32;9.55;;;;;;;;;;5051842;28;20572;-68
2023/02/22 10:34:32;;;;;;;12.18;9.77;;;;;;;;;;5050566;28;20581;-68
2023/02/22 10:37:05;;;;;;;10.55;9.40;;;;;;;;;;5050597;28;20193;-68
2023/02/22 10:39:33;;;;;;;12.32;10.43;;;;;;;;;;5051750;28;20236;-67
2023/02/22 10:42:05;;;;;;;11.35;9.60;;;;;;;;;;5044253;28;20270;-66
2023/02/22 10:44:33;;;;;;;12.80;9.75;;;;;;;;;;5047708;28;20230;-67
2023/02/22 10:47:03;;;;;;;13.57;11.43;;;;;;;;;;5033091;28;20203;-66
2023/02/22 10:49:35;;;;;;;15.05;10.70;;;;;;;;;;5049559;28;20541;-66
2023/02/22 10:52:05;;;;;;;14.63;11.18;;;;;;;;;;5051079;28;20215;-67
2023/02/22 10:54:37;;;;;;;13.80;10.70;;;;;;;;;;5049965;28;20196;-67
2023/02/22 10:57:06;;;;;;;12.60;10.10;;;;;;;;;;5048964;28;20199;-67
2023/02/22 10:59:35;;;;;;;17.05;11.55;;;;;;;;;;5048407;28;20579;-66
2023/02/22 11:02:09;;;;;;;12.82;10.88;;;;;;;;;;5047965;28;20200;-66
2023/02/22 11:04:46;;;;;;;15.17;10.90;;;;;;;;;;5048134;28;20196;-66
2023/02/22 11:07:21;;;;;;;11.60;10.40;;;;;;;;;;5045618;28;20588;-66
2023/02/22 11:09:51;;;;;;;13.33;11.97;;;;;;;;;;5049831;28;20566;-67
2023/02/22 11:12:20;;;;;;;13.30;11.03;;;;;;;;;;5051227;28;20604;-67
2023/02/22 11:14:49;;;;;;;13.57;11.93;;;;;;;;;;5050378;28;20934;-67
2023/02/22 11:17:19;;;;;;;14.90;12.43;;;;;;;;;;5051832;28;20975;-67
2023/02/22 11:19:48;;;;;;;11.63;10.43;;;;;;;;;;5050654;28;20662;-67
2023/02/22 11:22:22;;;;;;;13.30;11.67;;;;;;;;;;5050752;28;20983;-67
2023/02/22 11:24:52;;;;;;;13.60;11.87;;;;;;;;;;5051473;28;20569;-67
2023/02/22 11:27:25;;;;;;;14.73;12.03;;;;;;;;;;5050205;28;20629;-67
2023/02/22 11:29:53;;;;;;;14.43;13.00;;;;;;;;;;5051525;28;20651;-67
2023/02/22 11:32:23;;;;;;;15.50;12.47;;;;;;;;;;5046415;28;20626;-67
2023/02/22 11:34:52;;;;;;;16.80;12.53;;;;;;;;;;5048982;28;20615;-67
2023/02/22 11:37:30;;;;;;;18.63;13.47;;;;;;;;;;5049799;28;20625;-67
2023/02/22 11:40:05;;;;;;;15.90;14.10;;;;;;;;;;5050743;28;20665;-67
2023/02/22 11:42:34;;;;;;;15.33;13.77;;;;;;;;;;5044560;28;20623;-65
2023/02/22 11:45:12;;;;;;;16.37;14.67;;;;;;;;;;5051929;28;20627;-66
2023/02/22 11:47:52;;;;;;;14.93;13.40;;;;;;;;;;5049961;28;20621;-66
2023/02/22 11:50:38;;;;;;;15.07;13.70;;;;;;;;;;5052598;28;20621;-66
2023/02/22 11:53:24;;;;;;;14.33;12.93;;;;;;;;;;5053257;28;20609;-65
2023/02/22 11:55:59;;;;;;;17.40;13.70;;;;;;;;;;5054238;28;21230;-66
2023/02/22 11:58:31;;;;;;;15.27;13.67;;;;;;;;;;5051975;28;20653;-66
2023/02/22 12:01:05;;;;;;;14.77;13.27;;;;;;;;;;5050488;28;20615;-66
2023/02/22 12:03:57;;;;;;;13.40;12.10;;;;;;;;;;5050470;28;21179;-66
2023/02/22 12:06:29;;;;;;;14.70;13.20;;;;;;;;;;5053141;28;20623;-67
2023/02/22 12:09:03;;;;;;;14.37;12.87;;;;;;;;;;5053742;28;20619;-66
2023/02/22 12:11:40;;;;;;;16.17;14.07;;;;;;;;;;5051639;28;20580;-66
2023/02/22 12:14:13;;;;;;;15.43;14.00;;;;;;;;;;5049471;28;20671;-66
2023/02/22 12:16:46;;;;;;;15.17;13.87;;;;;;;;;;5052076;28;20595;-66
2023/02/22 12:19:20;;;;;;;15.07;13.77;;;;;;;;;;5052315;28;21050;-66
2023/02/22 12:21:52;;;;;;;14.70;13.20;;;;;;;;;;5052202;28;20616;-67
2023/02/22 12:24:22;;;;;;;13.47;12.20;;;;;;;;;;5049073;28;20659;-67
2023/02/22 12:26:54;;;;;;;14.90;13.50;;;;;;;;;;5050980;28;20622;-67
2023/02/22 12:29:27;;;;;;;14.73;13.43;;;;;;;;;;5049199;28;20660;-67
2023/02/22 12:31:57;;;;;;;14.77;13.27;;;;;;;;;;5051376;28;20599;-67
2023/02/22 12:34:28;;;;;;;14.83;13.53;;;;;;;;;;5051167;28;20623;-66
2023/02/22 12:37:00;;;;;;;14.03;12.83;;;;;;;;;;5051269;28;20599;-66
2023/02/22 12:39:37;;;;;;;14.70;12.70;;;;;;;;;;5051038;28;20645;-66
2023/02/22 12:42:12;;;;;;;14.83;13.17;;;;;;;;;;5041419;28;20613;-66
2023/02/22 12:44:41;;;;;;;13.77;12.57;;;;;;;;;;5052446;28;20609;-66
2023/02/22 12:47:15;;;;;;;15.90;14.30;;;;;;;;;;5052272;28;21070;-66
2023/02/22 12:49:45;;;;;;;15.07;13.47;;;;;;;;;;5052652;28;20610;-67
2023/02/22 12:52:15;;;;;;;16.53;12.43;;;;;;;;;;5051910;28;20623;-66
2023/02/22 12:54:46;;;;;;;14.40;12.93;;;;;;;;;;5038974;28;20628;-67
2023/02/22 12:57:19;;;;;;;14.97;12.00;;;;;;;;;;5046893;28;20645;-67
2023/02/22 12:59:49;;;;;;;14.87;13.43;;;;;;;;;;5053672;28;20633;-66
2023/02/22 13:02:20;;;;;;;16.57;14.80;;;;;;;;;;5051925;28;20623;-66
2023/02/22 13:04:48;;;;;;;16.60;13.33;;;;;;;;;;5050972;28;21235;-67
2023/02/22 13:07:26;;;;;;;21.03;14.30;;;;;;;;;;5050448;28;20623;-67
2023/02/22 13:10:03;;;;;;;14.67;13.27;;;;;;;;;;5050307;28;20625;-67
2023/02/22 13:12:38;;;;;;;15.73;14.33;;;;;;;;;;5053897;28;20627;-67
2023/02/22 13:15:09;;;;;;;14.03;12.77;;;;;;;;;;5051111;28;20956;-67
2023/02/22 13:17:40;;;;;;;14.50;13.17;;;;;;;;;;5049320;28;20931;-68
2023/02/22 13:20:11;;;;;;;17.90;13.17;;;;;;;;;;5052127;28;20651;-67
2023/02/22 13:22:43;;;;;;;15.33;13.77;;;;;;;;;;5049796;28;20669;-67
2023/02/22 13:25:14;;;;;;;16.00;14.30;;;;;;;;;;5052677;28;20672;-67
2023/02/22 13:27:46;;;;;;;14.87;13.33;;;;;;;;;;5053378;28;20574;-67
2023/02/22 13:30:17;;;;;;;14.80;13.40;;;;;;;;;;5049372;28;20603;-67
2023/02/22 13:32:51;;;;;;;15.47;13.90;;;;;;;;;;5053512;28;20669;-67
2023/02/22 13:35:29;;;;;;;16.93;15.17;;;;;;;;;;5053472;28;20587;-67
2023/02/22 13:38:24;;;;;;;19.20;13.03;;;;;;;;;;5051456;28;20724;-65
2023/02/22 13:41:05;;;;;;;14.20;12.90;;;;;;;;;;5051959;28;20649;-66
2023/02/22 13:43:54;;;;;;;17.43;13.60;;;;;;;;;;5052298;28;20607;-66
2023/02/22 13:46:29;;;;;;;15.50;13.90;;;;;;;;;;5047331;28;20653;-66
2023/02/22 13:49:09;;;;;;;15.63;14.13;;;;;;;;;;5050929;28;20629;-66
2023/02/22 13:51:44;;;;;;;17.20;14.73;;;;;;;;;;5048705;28;20949;-66
2023/02/22 13:54:16;;;;;;;14.47;13.10;;;;;;;;;;5050536;28;20618;-66
2023/02/22 13:56:44;;;;;;;14.83;13.20;;;;;;;;;;5051242;28;20611;-66
2023/02/22 13:59:23;;;;;;;16.43;14.83;;;;;;;;;;5051831;28;20636;-66
2023/02/22 14:01:53;;;;;;;15.73;13.73;;;;;;;;;;5052138;28;20968;-66
2023/02/22 14:04:37;;;;;;;16.83;14.80;;;;;;;;;;5051794;28;20594;-66
2023/02/22 14:07:28;;;;;;;19.70;13.73;;;;;;;;;;5049699;28;21181;-67
2023/02/22 14:10:00;;;;;;;14.63;13.10;;;;;;;;;;5051731;28;20627;-67
2023/02/22 14:12:47;;;;;;;13.83;12.53;;;;;;;;;;5051214;28;20583;-66
2023/02/22 14:15:16;;;;;;;14.30;12.90;;;;;;;;;;5052044;28;20607;-66
2023/02/22 14:17:46;;;;;;;14.57;13.27;;;;;;;;;;5038161;28;20627;-66
2023/02/22 14:20:32;;;;;;;15.33;12.97;;;;;;;;;;5049258;28;20675;-66
2023/02/22 14:23:19;;;;;;;15.50;13.90;;;;;;;;;;5051066;28;20651;-67
2023/02/22 14:25:47;;;;;;;17.30;14.40;;;;;;;;;;5049965;28;20613;-66
2023/02/22 14:28:38;;;;;;;18.07;12.87;;;;;;;;;;5049791;28;20714;-66
2023/02/22 14:31:11;;;;;;;15.80;14.23;;;;;;;;;;5048283;28;20971;-66
2023/02/22 14:34:07;;;;;;;15.10;13.33;;;;;;;;;;5050856;28;20723;-66
2023/02/22 14:36:44;;;;;;;13.97;12.47;;;;;;;;;;5051064;28;20627;-66
2023/02/22 14:39:20;;;;;;;22.10;12.13;;;;;;;;;;5048647;28;20587;-66
2023/02/22 14:41:53;;;;;;;14.97;12.63;;;;;;;;;;5049073;28;20609;-64
2023/02/22 14:44:24;;;;;;;15.67;12.63;;;;;;;;;;5049934;28;20615;-65
2023/02/22 14:46:53;;;;;;;18.27;13.03;;;;;;;;;;5050415;28;20611;-69
2023/02/22 14:49:23;;;;;;;15.80;14.10;;;;;;;;;;5049014;28;21199;-68
2023/02/22 14:51:55;;;;;;;14.20;12.40;;;;;;;;;;5049845;28;20607;-67
2023/02/22 14:54:26;;;;;;;16.30;13.53;;;;;;;;;;5053097;28;21204;-67